createdAt,value
2018-06-10T00:00:18.834Z,27.73
2018-06-10T00:02:47.662Z,25.27
2018-06-10T00:05:16.654Z,30.13
2018-06-10T00:07:45.393Z,25.00
2018-06-10T00:10:14.262Z,25.33
2018-06-10T00:12:42.998Z,24.77
2018-06-10T00:15:11.624Z,25.43
2018-06-10T00:17:40.250Z,23.90
2018-06-10T00:20:09.115Z,23.83
2018-06-10T00:22:37.847Z,25.63
2018-06-10T00:25:06.938Z,25.80
2018-06-10T00:27:35.685Z,25.37
2018-06-10T00:30:04.571Z,24.17
2018-06-10T00:32:33.434Z,26.93
2018-06-10T00:35:02.167Z,25.13
2018-06-10T00:37:30.786Z,24.27
2018-06-10T00:39:59.640Z,24.83
2018-06-10T00:42:28.389Z,26.40
2018-06-10T00:44:57.020Z,23.40
2018-06-10T00:47:25.629Z,25.77
2018-06-10T00:49:54.486Z,26.10
2018-06-10T00:52:23.232Z,26.77
2018-06-10T00:54:52.083Z,26.97
2018-06-10T00:57:21.070Z,33.70
2018-06-10T00:59:49.801Z,37.17
2018-06-10T01:02:18.854Z,43.53
2018-06-10T01:04:47.430Z,46.80
2018-06-10T01:07:16.018Z,43.70
2018-06-10T01:09:44.618Z,33.47
2018-06-10T01:12:13.202Z,33.07
2018-06-10T01:14:41.770Z,34.17
2018-06-10T01:17:10.354Z,38.57
2018-06-10T01:19:39.179Z,36.63
2018-06-10T01:22:08.114Z,38.03
2018-06-10T01:24:37.062Z,43.27
2018-06-10T01:27:06.015Z,37.13
2018-06-10T01:29:34.742Z,36.43
2018-06-10T01:32:03.554Z,36.33
2018-06-10T01:34:32.511Z,39.80
2018-06-10T01:37:01.209Z,40.83
2018-06-10T01:39:30.042Z,40.23
2018-06-10T01:41:58.990Z,41.10
2018-06-10T01:44:27.714Z,41.00
2018-06-10T01:46:56.542Z,42.37
2018-06-10T01:49:25.506Z,39.73
2018-06-10T01:51:54.213Z,41.13
2018-06-10T01:54:23.045Z,41.87
2018-06-10T01:56:51.769Z,41.63
2018-06-10T01:59:20.602Z,42.60
2018-06-10T02:01:49.563Z,41.53
2018-06-10T02:04:18.301Z,40.30
2018-06-10T02:06:47.150Z,41.43
2018-06-10T02:09:16.114Z,43.90
2018-06-10T02:11:44.805Z,43.07
2018-06-10T02:14:13.629Z,45.43
2018-06-10T02:16:42.587Z,44.47
2018-06-10T02:19:11.519Z,46.57
2018-06-10T02:21:40.483Z,43.67
2018-06-10T02:24:09.214Z,44.17
2018-06-10T02:26:38.021Z,43.87
2018-06-10T02:29:06.975Z,43.73
2018-06-10T02:31:35.719Z,47.27
2018-06-10T02:34:04.313Z,43.90
2018-06-10T02:36:33.135Z,46.67
2018-06-10T02:39:01.861Z,49.77
2018-06-10T02:41:30.681Z,53.07
2018-06-10T02:43:59.619Z,50.43
2018-06-10T02:46:28.351Z,49.70
2018-06-10T02:48:57.174Z,48.57
2018-06-10T02:51:25.886Z,48.30
2018-06-10T02:53:54.528Z,46.37
2018-06-10T02:56:23.353Z,47.97
2018-06-10T02:58:52.310Z,45.40
2018-06-10T03:01:21.262Z,45.03
2018-06-10T03:03:50.231Z,44.30
2018-06-10T03:06:18.973Z,44.73
2018-06-10T03:08:47.818Z,43.37
2018-06-10T03:11:16.778Z,43.40
2018-06-10T03:13:45.506Z,42.50
2018-06-10T03:16:14.086Z,39.70
2018-06-10T03:18:42.910Z,37.23
2018-06-10T03:21:11.645Z,35.40
2018-06-10T03:23:40.472Z,32.03
2018-06-10T03:26:09.217Z,28.83
2018-06-10T03:28:37.800Z,27.60
2018-06-10T03:31:06.382Z,28.80
2018-06-10T03:33:35.218Z,34.27
2018-06-10T03:36:03.937Z,26.90
2018-06-10T03:38:32.514Z,27.63
2018-06-10T03:41:01.105Z,26.43
2018-06-10T03:43:29.938Z,24.20
2018-06-10T03:46:42.063Z,24.40
2018-06-10T03:49:10.787Z,26.97
2018-06-10T03:51:39.594Z,26.00
2018-06-10T03:54:08.538Z,25.23
2018-06-10T03:56:37.261Z,24.63
2018-06-10T03:59:06.066Z,25.10
2018-06-10T04:01:35.027Z,24.33
2018-06-10T04:04:03.750Z,23.90
2018-06-10T04:06:32.590Z,26.50
2018-06-10T04:09:01.579Z,26.40
2018-06-10T04:11:30.573Z,30.30
2018-06-10T04:13:59.504Z,26.27
2018-06-10T04:16:28.945Z,26.23
2018-06-10T04:18:58.018Z,26.17
2018-06-10T04:21:26.962Z,24.20
2018-06-10T04:23:55.894Z,23.77
2018-06-10T04:26:24.616Z,23.80
2018-06-10T04:28:53.446Z,26.00
2018-06-10T04:31:22.384Z,26.33
2018-06-10T04:33:51.105Z,26.47
2018-06-10T04:36:19.906Z,25.83
2018-06-10T04:38:48.858Z,24.33
2018-06-10T04:41:17.573Z,26.20
2018-06-10T04:43:46.408Z,25.43
2018-06-10T04:46:15.363Z,26.40
2018-06-10T04:48:44.299Z,26.70
2018-06-10T04:51:13.019Z,27.53
2018-06-10T04:53:41.618Z,28.27
2018-06-10T04:56:10.202Z,28.40
2018-06-10T04:58:39.030Z,30.07
2018-06-10T05:01:07.738Z,28.87
2018-06-10T05:03:36.311Z,27.47
2018-06-10T05:06:05.256Z,28.73
2018-06-10T05:08:34.215Z,30.37
2018-06-10T05:11:02.954Z,33.10
2018-06-10T05:13:31.838Z,31.90
2018-06-10T05:16:00.750Z,31.43
2018-06-10T05:18:29.722Z,31.33
2018-06-10T05:20:58.678Z,31.03
2018-06-10T05:23:27.395Z,31.63
2018-06-10T05:25:56.207Z,34.00
2018-06-10T05:28:24.938Z,32.90
2018-06-10T05:30:53.765Z,32.90
2018-06-10T05:33:22.563Z,33.87
2018-06-10T05:35:51.523Z,33.57
2018-06-10T05:38:20.248Z,33.80
2018-06-10T05:40:49.055Z,37.10
2018-06-10T05:43:17.783Z,36.63
2018-06-10T05:45:46.374Z,34.77
2018-06-10T05:48:14.946Z,35.07
2018-06-10T05:50:43.790Z,36.90
2018-06-10T05:53:12.499Z,37.33
2018-06-10T05:55:41.317Z,32.30
2018-06-10T05:58:10.278Z,36.87
2018-06-10T06:00:39.030Z,37.63
2018-06-10T06:03:07.841Z,36.40
2018-06-10T06:05:36.790Z,39.53
2018-06-10T06:08:05.746Z,32.87
2018-06-10T06:10:34.682Z,34.77
2018-06-10T06:13:03.439Z,34.50
2018-06-10T06:15:32.035Z,35.27
2018-06-10T06:18:00.858Z,33.77
2018-06-10T06:20:29.574Z,37.10
2018-06-10T06:22:58.410Z,35.83
2018-06-10T06:25:27.363Z,34.57
2018-06-10T06:27:56.062Z,33.47
2018-06-10T06:30:24.721Z,34.17
2018-06-10T06:32:53.549Z,35.83
2018-06-10T06:35:22.250Z,34.70
2018-06-10T06:37:51.078Z,32.50
2018-06-10T06:40:20.035Z,34.47
2018-06-10T06:42:48.750Z,36.40
2018-06-10T06:45:17.582Z,34.00
2018-06-10T06:47:46.538Z,32.43
2018-06-10T06:50:15.281Z,49.03
2018-06-10T06:52:44.124Z,33.40
2018-06-10T06:55:12.858Z,33.83
2018-06-10T06:57:41.457Z,37.30
2018-06-10T07:00:10.307Z,37.77
2018-06-10T07:02:39.065Z,34.47
2018-06-10T07:05:07.655Z,34.57
2018-06-10T07:07:36.488Z,38.00
2018-06-10T07:10:05.448Z,38.23
2018-06-10T07:12:34.154Z,37.77
2018-06-10T07:15:03.041Z,40.20
2018-06-10T07:17:31.990Z,39.50
2018-06-10T07:20:00.739Z,40.13
2018-06-10T07:22:29.534Z,38.37
2018-06-10T07:24:58.265Z,41.93
2018-06-10T07:27:26.869Z,41.37
2018-06-10T07:29:55.679Z,44.80
2018-06-10T07:32:24.646Z,46.47
2018-06-10T07:34:53.382Z,50.43
2018-06-10T07:37:22.195Z,48.67
2018-06-10T07:39:50.935Z,47.87
2018-06-10T07:42:19.521Z,46.97
2018-06-10T07:44:48.114Z,45.43
2018-06-10T07:47:16.983Z,43.33
2018-06-10T07:49:45.708Z,42.63
2018-06-10T07:52:14.539Z,39.70
2018-06-10T07:54:43.247Z,38.90
2018-06-10T07:57:12.079Z,38.77
2018-06-10T07:59:41.027Z,38.30
2018-06-10T08:02:09.962Z,41.90
2018-06-10T08:04:38.698Z,41.77
2018-06-10T08:07:07.503Z,43.03
2018-06-10T08:09:36.421Z,44.57
2018-06-10T08:12:05.042Z,45.20
2018-06-10T08:14:33.867Z,45.00
2018-06-10T08:17:02.602Z,41.70
2018-06-10T08:19:31.206Z,45.30
2018-06-10T08:22:00.050Z,50.87
2018-06-10T08:24:28.992Z,52.17
2018-06-10T08:26:57.727Z,53.33
2018-06-10T08:29:26.543Z,50.93
2018-06-10T08:31:55.303Z,50.37
2018-06-10T08:34:23.906Z,53.43
2018-06-10T08:36:52.489Z,53.90
2018-06-10T08:39:21.303Z,52.73
2018-06-10T08:41:50.014Z,57.77
2018-06-10T08:44:18.593Z,59.83
2018-06-10T08:46:47.423Z,61.17
2018-06-10T08:49:16.155Z,59.77
2018-06-10T08:51:44.810Z,68.77
2018-06-10T08:54:13.624Z,72.57
2018-06-10T08:56:42.367Z,80.17
2018-06-10T08:59:11.002Z,82.30
2018-06-10T09:01:39.866Z,72.97
2018-06-10T09:04:08.846Z,77.50
2018-06-10T09:06:37.807Z,77.00
2018-06-10T09:09:08.788Z,75.43
2018-06-10T09:11:37.558Z,69.37
2018-06-10T09:14:06.408Z,73.67
2018-06-10T09:16:35.383Z,69.23
2018-06-10T09:19:04.141Z,66.37
2018-06-10T09:21:33.013Z,71.70
2018-06-10T09:24:01.726Z,84.47
2018-06-10T09:26:30.330Z,75.73
2018-06-10T09:28:59.180Z,70.67
2018-06-10T09:31:28.145Z,65.30
2018-06-10T09:33:57.087Z,62.57
2018-06-10T09:36:25.806Z,62.30
2018-06-10T09:38:54.423Z,65.47
2018-06-10T09:41:23.022Z,73.40
2018-06-10T09:43:51.874Z,72.53
2018-06-10T09:46:20.619Z,71.90
2018-06-10T09:48:49.222Z,64.23
2018-06-10T09:51:17.835Z,66.93
2018-06-10T09:53:46.666Z,71.77
2018-06-10T09:56:15.394Z,67.90
2018-06-10T09:58:43.990Z,73.53
2018-06-10T10:01:12.810Z,76.47
2018-06-10T10:03:41.530Z,76.87
2018-06-10T10:06:10.094Z,69.27
2018-06-10T10:08:39.218Z,70.53
2018-06-10T10:11:07.938Z,64.87
2018-06-10T10:13:36.754Z,66.50
2018-06-10T10:16:05.494Z,76.40
2018-06-10T10:18:34.085Z,74.07
2018-06-10T10:21:02.773Z,72.77
2018-06-10T10:23:31.334Z,65.67
2018-06-10T10:26:00.147Z,66.63
2018-06-10T10:28:28.866Z,64.67
2018-06-10T10:30:57.714Z,65.37
2018-06-10T10:33:26.676Z,71.97
2018-06-10T10:35:55.396Z,67.33
2018-06-10T10:38:24.227Z,63.60
2018-06-10T10:40:52.959Z,56.83
2018-06-10T10:43:21.554Z,60.03
2018-06-10T10:45:50.382Z,60.97
2018-06-10T10:48:19.338Z,64.20
2018-06-10T10:50:48.057Z,61.57
2018-06-10T10:53:16.886Z,59.50
2018-06-10T10:55:45.615Z,54.17
2018-06-10T10:58:14.185Z,50.23
2018-06-10T11:00:42.989Z,49.67
2018-06-10T11:03:11.950Z,51.17
2018-06-10T11:05:40.662Z,46.43
2018-06-10T11:08:09.477Z,46.63
2018-06-10T11:10:38.406Z,38.83
2018-06-10T11:13:07.126Z,43.33
2018-06-10T11:15:35.976Z,43.00
2018-06-10T11:18:04.890Z,40.47
2018-06-10T11:20:33.653Z,39.10
2018-06-10T11:23:02.479Z,40.07
2018-06-10T11:25:31.198Z,33.30
2018-06-10T11:27:59.802Z,31.97
2018-06-10T11:30:28.648Z,35.83
2018-06-10T11:32:57.368Z,32.50
2018-06-10T11:35:25.949Z,32.17
2018-06-10T11:37:54.530Z,32.53
2018-06-10T11:40:23.382Z,31.13
2018-06-10T11:42:52.118Z,28.83
2018-06-10T11:45:20.955Z,28.80
2018-06-10T11:47:49.912Z,27.90
2018-06-10T11:50:18.617Z,27.20
2018-06-10T11:52:47.418Z,25.80
2018-06-10T11:55:17.333Z,25.70
2018-06-10T11:57:46.129Z,25.37
2018-06-10T12:00:14.830Z,26.50
2018-06-10T12:02:43.451Z,24.03
2018-06-10T12:05:12.328Z,22.97
2018-06-10T12:07:40.982Z,24.10
2018-06-10T12:10:11.162Z,21.67
2018-06-10T12:12:39.747Z,24.47
2018-06-10T12:15:08.562Z,23.00
2018-06-10T12:17:37.490Z,24.33
2018-06-10T12:20:06.326Z,21.63
2018-06-10T12:22:35.208Z,20.67
2018-06-10T12:25:03.839Z,26.53
2018-06-10T12:27:32.446Z,24.00
2018-06-10T12:30:01.026Z,23.87
2018-06-10T12:32:29.850Z,26.30
2018-06-10T12:34:58.566Z,23.87
2018-06-10T12:37:27.418Z,24.57
2018-06-10T12:39:56.404Z,28.03
2018-06-10T12:42:25.134Z,22.10
2018-06-10T12:44:54.014Z,23.43
2018-06-10T12:47:22.766Z,21.90
2018-06-10T12:49:51.342Z,21.90
2018-06-10T12:52:20.258Z,19.27
2018-06-10T12:54:49.232Z,19.50
2018-06-10T12:57:18.147Z,20.07
2018-06-10T12:59:47.074Z,20.33
2018-06-10T13:02:15.834Z,21.70
2018-06-10T13:04:44.402Z,18.40
2018-06-10T13:07:13.204Z,20.97
2018-06-10T13:09:41.929Z,23.57
2018-06-10T13:12:10.526Z,21.07
2018-06-10T13:14:39.110Z,20.03
2018-06-10T13:17:07.947Z,16.83
2018-06-10T13:19:36.674Z,17.13
2018-06-10T13:22:05.270Z,17.50
2018-06-10T13:24:34.125Z,16.10
2018-06-10T13:27:02.809Z,16.60
2018-06-10T13:29:31.382Z,18.77
2018-06-10T13:32:00.195Z,16.60
2018-06-10T13:34:28.899Z,16.23
2018-06-10T13:36:57.470Z,16.47
2018-06-10T13:39:26.054Z,18.23
2018-06-10T13:41:54.653Z,17.73
2018-06-10T13:44:23.230Z,14.20
2018-06-10T13:46:51.797Z,15.53
2018-06-10T13:49:20.404Z,18.47
2018-06-10T13:51:49.206Z,15.57
2018-06-10T13:54:17.905Z,19.00
2018-06-10T13:56:46.535Z,17.77
2018-06-10T13:59:15.098Z,17.60
2018-06-10T14:01:43.882Z,21.40
2018-06-10T14:04:12.591Z,19.40
2018-06-10T14:06:41.533Z,15.50
2018-06-10T14:09:10.411Z,18.23
2018-06-10T14:11:39.130Z,17.27
2018-06-10T14:14:07.737Z,16.50
2018-06-10T14:16:36.570Z,16.53
2018-06-10T14:19:05.304Z,14.47
2018-06-10T14:21:33.872Z,15.43
2018-06-10T14:24:02.711Z,19.10
2018-06-10T14:26:31.459Z,14.67
2018-06-10T14:29:00.286Z,12.90
2018-06-10T14:31:28.990Z,14.33
2018-06-10T14:33:57.578Z,15.37
2018-06-10T14:36:26.150Z,14.83
2018-06-10T14:38:54.959Z,12.43
2018-06-10T14:41:23.876Z,13.90
2018-06-10T14:43:52.569Z,12.37
2018-06-10T14:46:21.391Z,11.93
2018-06-10T14:48:52.507Z,12.40
2018-06-10T14:51:21.455Z,12.90
2018-06-10T14:53:50.201Z,14.93
2018-06-10T14:56:18.785Z,13.27
2018-06-10T14:58:47.385Z,12.70
2018-06-10T15:01:16.205Z,12.97
2018-06-10T15:03:44.950Z,12.20
2018-06-10T15:06:13.550Z,15.70
2018-06-10T15:08:42.150Z,12.87
2018-06-10T15:11:10.751Z,12.47
2018-06-10T15:13:39.370Z,12.17
2018-06-10T15:16:07.963Z,12.40
2018-06-10T15:18:36.527Z,11.63
2018-06-10T15:21:05.403Z,11.37
2018-06-10T15:23:34.105Z,10.50
2018-06-10T15:26:02.942Z,11.13
2018-06-10T15:28:31.902Z,10.40
2018-06-10T15:31:00.615Z,11.47
2018-06-10T15:33:29.483Z,11.70
2018-06-10T15:35:58.438Z,11.30
2018-06-10T15:38:27.438Z,12.43
2018-06-10T15:40:56.139Z,12.43
2018-06-10T15:43:24.718Z,18.47
2018-06-10T15:45:53.331Z,20.53
2018-06-10T15:48:22.157Z,38.77
2018-06-10T15:50:50.870Z,27.87
2018-06-10T15:53:19.462Z,16.20
2018-06-10T15:55:48.307Z,13.20
2018-06-10T15:58:17.268Z,15.53
2018-06-10T16:00:45.993Z,28.40
2018-06-10T16:03:14.842Z,30.50
2018-06-10T16:05:43.798Z,28.03
2018-06-10T16:08:12.764Z,48.07
2018-06-10T16:10:41.461Z,22.87
2018-06-10T16:13:10.067Z,13.10
2018-06-10T16:15:38.650Z,22.00
2018-06-10T16:18:07.488Z,15.83
2018-06-10T16:20:36.439Z,11.60
2018-06-10T16:23:05.367Z,11.17
2018-06-10T16:25:34.298Z,10.97
2018-06-10T16:28:03.014Z,11.07
2018-06-10T16:30:31.642Z,11.13
2018-06-10T16:33:00.450Z,10.80
2018-06-10T16:35:29.394Z,11.30
2018-06-10T16:37:58.363Z,11.30
2018-06-10T16:40:27.297Z,9.03
2018-06-10T16:42:56.250Z,11.83
2018-06-10T16:45:28.710Z,10.97
2018-06-10T16:47:57.471Z,10.10
2018-06-10T16:50:26.082Z,10.07
2018-06-10T16:52:54.896Z,9.40
2018-06-10T16:55:23.671Z,10.57
2018-06-10T16:57:52.270Z,10.63
2018-06-10T17:00:20.849Z,11.37
2018-06-10T17:02:49.457Z,14.37
2018-06-10T17:05:18.251Z,15.37
2018-06-10T17:07:46.942Z,10.73
2018-06-10T17:10:15.774Z,10.37
2018-06-10T17:12:44.538Z,11.70
2018-06-10T17:15:13.170Z,14.40
2018-06-10T17:17:41.841Z,14.33
2018-06-10T17:20:10.642Z,20.50
2018-06-10T17:22:39.370Z,17.20
2018-06-10T17:25:08.201Z,11.67
2018-06-10T17:27:37.158Z,12.30
2018-06-10T17:30:05.899Z,12.43
2018-06-10T17:32:34.721Z,11.70
2018-06-10T17:35:03.687Z,13.10
2018-06-10T17:37:32.371Z,11.97
2018-06-10T17:40:01.187Z,11.27
2018-06-10T17:42:30.193Z,10.17
2018-06-10T17:44:59.117Z,10.87
2018-06-10T17:47:28.114Z,14.07
2018-06-10T17:49:56.790Z,9.30
2018-06-10T17:52:25.612Z,10.00
2018-06-10T17:54:54.313Z,12.63
2018-06-10T17:57:22.886Z,9.33
2018-06-10T17:59:51.466Z,9.90
2018-06-10T18:02:20.265Z,12.07
2018-06-10T18:04:48.974Z,10.93
2018-06-10T18:07:17.568Z,12.00
2018-06-10T18:09:46.388Z,10.47
2018-06-10T18:12:15.097Z,10.10
2018-06-10T18:14:43.673Z,11.50
2018-06-10T18:17:12.273Z,12.00
2018-06-10T18:19:41.119Z,12.10
2018-06-10T18:22:09.825Z,11.93
2018-06-10T18:24:38.408Z,10.60
2018-06-10T18:27:07.218Z,13.13
2018-06-10T18:29:36.174Z,13.13
2018-06-10T18:32:04.887Z,13.00
2018-06-10T18:34:33.711Z,13.07
2018-06-10T18:37:02.462Z,11.70
2018-06-10T18:39:31.026Z,11.10
2018-06-10T18:41:59.834Z,10.50
2018-06-10T18:44:28.566Z,10.43
2018-06-10T18:46:57.116Z,9.73
2018-06-10T18:49:25.705Z,14.50
2018-06-10T18:51:54.530Z,10.73
2018-06-10T18:54:23.241Z,9.20
2018-06-10T18:56:51.851Z,11.30
2018-06-10T18:59:20.438Z,10.80
2018-06-10T19:01:49.238Z,10.33
2018-06-10T19:04:17.930Z,10.53
2018-06-10T19:06:46.739Z,13.57
2018-06-10T19:09:15.454Z,11.73
2018-06-10T19:11:44.033Z,13.10
2018-06-10T19:14:12.622Z,11.53
2018-06-10T19:16:41.214Z,11.03
2018-06-10T19:19:10.042Z,10.53
2018-06-10T19:21:38.739Z,12.40
2018-06-10T19:24:07.686Z,14.53
2018-06-10T19:26:36.655Z,13.20
2018-06-10T19:29:05.382Z,11.50
2018-06-10T19:31:34.215Z,12.47
2018-06-10T19:34:02.942Z,10.77
2018-06-10T19:36:31.537Z,14.50
2018-06-10T19:39:00.204Z,15.23
2018-06-10T19:41:28.978Z,14.27
2018-06-10T19:43:57.670Z,14.17
2018-06-10T19:46:26.273Z,14.47
2018-06-10T19:48:54.861Z,12.13
2018-06-10T19:51:23.453Z,13.23
2018-06-10T19:53:52.048Z,12.97
2018-06-10T19:56:20.614Z,14.03
2018-06-10T19:58:49.422Z,14.23
2018-06-10T20:01:18.136Z,13.57
2018-06-10T20:03:46.745Z,15.03
2018-06-10T20:06:15.603Z,23.17
2018-06-10T20:08:44.538Z,17.47
2018-06-10T20:11:13.285Z,13.67
2018-06-10T20:13:42.119Z,15.30
2018-06-10T20:16:11.126Z,14.67
2018-06-10T20:18:40.095Z,14.17
2018-06-10T20:21:09.062Z,15.97
2018-06-10T20:23:37.807Z,16.83
2018-06-10T20:26:06.989Z,15.83
2018-06-10T20:28:35.727Z,16.07
2018-06-10T20:31:04.570Z,15.33
2018-06-10T20:33:33.499Z,15.20
2018-06-10T20:36:02.248Z,14.67
2018-06-10T20:38:30.846Z,14.93
2018-06-10T20:40:59.725Z,14.27
2018-06-10T20:43:28.518Z,15.23
2018-06-10T20:45:57.339Z,15.50
2018-06-10T20:48:26.123Z,15.40
2018-06-10T20:50:54.653Z,16.60
2018-06-10T20:53:23.254Z,14.70
2018-06-10T20:55:52.107Z,14.53
2018-06-10T20:58:20.838Z,14.17
2018-06-10T21:00:49.443Z,14.73
2018-06-10T21:03:18.282Z,15.90
2018-06-10T21:05:47.251Z,15.40
2018-06-10T21:08:16.256Z,14.67
2018-06-10T21:10:45.159Z,16.63
2018-06-10T21:13:13.882Z,17.73
2018-06-10T21:15:42.487Z,17.57
2018-06-10T21:18:11.294Z,16.40
2018-06-10T21:20:40.014Z,17.50
2018-06-10T21:23:08.629Z,15.40
2018-06-10T21:25:37.459Z,17.00
2018-06-10T21:28:06.173Z,16.03
2018-06-10T21:30:34.790Z,16.17
2018-06-10T21:33:03.627Z,18.27
2018-06-10T21:35:32.584Z,17.70
2018-06-10T21:38:01.543Z,18.47
2018-06-10T21:40:30.502Z,18.23
2018-06-10T21:42:59.237Z,20.27
2018-06-10T21:45:28.082Z,21.57
2018-06-10T21:47:57.038Z,17.20
2018-06-10T21:50:25.766Z,17.27
2018-06-10T21:52:54.590Z,19.07
2018-06-10T21:55:23.551Z,20.83
2018-06-10T21:57:52.510Z,18.07
2018-06-10T22:00:25.966Z,18.30
2018-06-10T22:02:54.922Z,16.33
2018-06-10T22:05:23.875Z,18.73
2018-06-10T22:07:52.623Z,18.70
2018-06-10T22:10:21.452Z,18.53
2018-06-10T22:12:50.170Z,18.57
2018-06-10T22:15:18.770Z,16.13
2018-06-10T22:17:47.598Z,19.30
2018-06-10T22:20:16.540Z,19.03
2018-06-10T22:22:45.265Z,20.47
2018-06-10T22:25:13.865Z,17.63
2018-06-10T22:27:42.708Z,17.90
2018-06-10T22:30:11.408Z,18.00
2018-06-10T22:32:40.803Z,18.90
2018-06-10T22:35:09.542Z,16.47
2018-06-10T22:37:38.371Z,17.60
2018-06-10T22:40:07.326Z,19.03
2018-06-10T22:42:36.046Z,18.93
2018-06-10T22:45:05.052Z,18.67
2018-06-10T22:47:33.749Z,19.07
2018-06-10T22:50:02.322Z,19.20
2018-06-10T22:52:30.922Z,19.10
2018-06-10T22:54:59.746Z,17.33
2018-06-10T22:57:28.462Z,18.27
2018-06-10T22:59:57.304Z,19.33
2018-06-10T23:02:26.019Z,19.20
2018-06-10T23:04:54.614Z,18.07
2018-06-10T23:07:23.238Z,17.87
2018-06-10T23:09:52.063Z,18.07
2018-06-10T23:12:20.768Z,20.43
2018-06-10T23:14:49.363Z,19.47
2018-06-10T23:17:18.187Z,18.80
2018-06-10T23:19:47.151Z,17.80
2018-06-10T23:22:15.869Z,19.63
2018-06-10T23:24:44.693Z,20.07
2018-06-10T23:27:13.678Z,18.90
2018-06-10T23:29:42.386Z,20.13
2018-06-10T23:32:11.633Z,20.73
2018-06-10T23:34:40.350Z,22.27
2018-06-10T23:37:09.190Z,25.23
2018-06-10T23:39:38.139Z,20.50
2018-06-10T23:42:06.867Z,20.07
2018-06-10T23:44:35.690Z,20.90
2018-06-10T23:47:04.413Z,22.67
2018-06-10T23:49:33.013Z,20.37
2018-06-10T23:52:01.847Z,21.60
2018-06-10T23:54:30.778Z,20.77
2018-06-10T23:56:59.497Z,23.13
2018-06-10T23:59:28.107Z,22.77
